Dati Storici

Data ora Umidita' aria (%) Temperatura aria (°C) Rad globale (W/m²) Gonioanemometro (°) Tacoanemometro (m/s) Pioggia (mm)
15-10-2012 20:00 91.4 % 15.564 2.766 25.642 0.828 0
15-10-2012 19:50 90.9 % 15.644 2.431 20.368 1.289 0
15-10-2012 19:40 90 % 15.866 2.354 24.94 0.469 0
15-10-2012 19:30 88.7 % 16.116 2.457 14.888 1.336 0
15-10-2012 19:20 87.4 % 16.377 2.239 324.233 1.155 0
15-10-2012 19:10 86.3 % 16.41 1.65 54.731 0.363 0
15-10-2012 19:00 85.3 % 16.444 1.766 248.837 0.865 0
15-10-2012 18:50 84.2 % 16.726 1.481 236.862 0.747 0
15-10-2012 18:40 84.4 % 16.925 1.814 230.358 1.589 0
15-10-2012 18:30 85.3 % 16.897 2.032 221.358 2.052 0
15-10-2012 18:20 85.2 % 17.044 2.98 166.091 2.182 0
15-10-2012 18:10 85.2 % 17.214 3.958 170.252 1.918 0
15-10-2012 18:00 85.3 % 17.335 7.63 213.614 3.275 0
15-10-2012 17:50 84.4 % 17.537 12.23 200.259 1.492 0
15-10-2012 17:40 83.5 % 17.586 16.834 215.098 0.991 0
15-10-2012 17:30 83.4 % 17.609 24.285 148.288 1.873 0
15-10-2012 17:20 84 % 17.395 45.321 170.027 1.592 0
15-10-2012 17:10 84.9 % 17.086 73.096 203.288 1.198 0
15-10-2012 17:00 85.5 % 17.01 63.175 170.687 1.758 0
15-10-2012 16:50 88.7 % 16.792 49.55 136.466 1.391 0

I dati sono presentati in modo automatico a scopo informativo. In seguito a verifica i dati possono subire modifiche o essere invalidati e non riportati negli archivi definitivi.